Time;durP1;ratioP1;P1;durP2;ratioP2;P2;SDS_P1;SDS_P2;PMS_P1;PMS_P2;Temp;Humidity;BMP_temperature;BMP_pressure;BME280_temperature;BME280_humidity;BME280_pressure;Samples;Min_cycle;Max_cycle;Signal;HPM_P1;HPM_P2
2024/01/24 00:01:51;;;;;;;;;0.00;0.00;;;;;-146.37;100.00;59337.28;4842194;29;47311;-80
2024/01/24 00:04:17;;;;;;;;;0.00;0.00;;;;;-146.37;100.00;59337.28;4842072;29;44917;-80
2024/01/24 00:06:42;;;;;;;;;0.00;0.00;;;;;-146.37;100.00;59337.28;4826280;29;45650;-81
2024/01/24 00:09:07;;;;;;;;;0.00;0.00;;;;;-146.37;100.00;59337.28;4828839;29;45389;-81
2024/01/24 00:11:33;;;;;;;;;0.75;0.00;;;;;-146.37;100.00;59337.28;4828662;29;46530;-81
2024/01/24 00:13:58;;;;;;;;;0.00;0.00;;;;;-146.37;100.00;59337.28;4828450;29;45415;-81
2024/01/24 00:16:23;;;;;;;;;0.00;0.00;;;;;-146.37;100.00;59337.28;4827699;29;45376;-81
2024/01/24 00:18:50;;;;;;;;;0.00;0.00;;;;;-146.37;100.00;59337.28;4838007;29;45589;-82
2024/01/24 00:21:16;;;;;;;;;0.00;0.00;;;;;-146.37;100.00;59337.28;4846912;29;46892;-80
2024/01/24 00:23:41;;;;;;;;;0.00;0.00;;;;;-146.37;100.00;59337.28;4848212;29;45407;-80
2024/01/24 00:26:07;;;;;;;;;0.00;0.00;;;;;-146.37;100.00;59337.28;4863988;29;45375;-81
2024/01/24 00:28:33;;;;;;;;;0.00;0.00;;;;;-146.37;100.00;59337.28;4864248;29;45497;-80
2024/01/24 00:30:59;;;;;;;;;0.00;0.00;;;;;-146.37;100.00;59337.28;4865540;29;45649;-80
2024/01/24 00:33:25;;;;;;;;;0.00;0.00;;;;;-146.37;100.00;59337.28;4849041;29;45558;-80
2024/01/24 00:35:51;;;;;;;;;0.00;0.00;;;;;-146.37;100.00;59337.28;4848624;29;45420;-80
2024/01/24 00:38:16;;;;;;;;;0.00;0.00;;;;;-146.37;100.00;59337.28;4864292;29;45496;-80
2024/01/24 00:40:42;;;;;;;;;0.00;0.00;;;;;-146.37;100.00;59337.28;4864070;29;46159;-80
2024/01/24 00:43:07;;;;;;;;;0.00;0.00;;;;;-146.37;100.00;59337.28;4847484;29;45394;-80
2024/01/24 00:45:32;;;;;;;;;0.00;0.00;;;;;-146.37;100.00;59337.28;4865091;29;45330;-80
2024/01/24 00:47:58;;;;;;;;;0.00;0.00;;;;;-146.37;100.00;59337.28;4850130;29;45292;-79
2024/01/24 00:50:23;;;;;;;;;0.00;0.00;;;;;-146.37;100.00;59337.28;4849701;29;47103;-80
2024/01/24 00:52:52;;;;;;;;;0.00;0.00;;;;;-146.37;100.00;59337.28;4864870;29;45787;-81
2024/01/24 00:55:21;;;;;;;;;0.00;0.00;;;;;-146.37;100.00;59337.28;4850023;29;45663;-79
2024/01/24 00:57:49;;;;;;;;;0.00;0.00;;;;;-146.37;100.00;59337.28;4864213;29;45440;-79
2024/01/24 01:00:15;;;;;;;;;0.00;0.00;;;;;-146.37;100.00;59337.28;4863159;29;45460;-80
2024/01/24 01:02:41;;;;;;;;;0.25;0.00;;;;;-146.37;100.00;59337.28;4844913;29;45845;-80
2024/01/24 01:05:07;;;;;;;;;0.00;0.00;;;;;-146.37;100.00;59337.28;4846368;29;45535;-80
2024/01/24 01:07:32;;;;;;;;;0.75;0.00;;;;;-146.37;100.00;59337.28;4848794;29;45689;-82
2024/01/24 01:09:57;;;;;;;;;0.00;0.00;;;;;-146.37;100.00;59337.28;4847557;29;47221;-79
2024/01/24 01:12:23;;;;;;;;;0.00;0.00;;;;;-146.37;100.00;59337.28;4867518;29;45445;-80
2024/01/24 01:14:48;;;;;;;;;0.00;0.00;;;;;-146.37;100.00;59337.28;4850269;29;45717;-80
2024/01/24 01:17:14;;;;;;;;;0.00;0.00;;;;;-146.37;100.00;59337.28;4848221;29;45513;-81
2024/01/24 01:19:40;;;;;;;;;0.00;0.00;;;;;-146.37;100.00;59337.28;4862202;29;46418;-81
2024/01/24 01:22:05;;;;;;;;;0.00;0.00;;;;;-146.37;100.00;59337.28;4865367;29;45581;-81
2024/01/24 01:24:31;;;;;;;;;0.00;0.00;;;;;-146.37;100.00;59337.28;4850636;29;45429;-80
2024/01/24 01:26:56;;;;;;;;;0.00;0.00;;;;;-146.37;100.00;59337.28;4868713;29;45353;-80
2024/01/24 01:29:21;;;;;;;;;0.00;0.00;;;;;-146.37;100.00;59337.28;4849025;29;47023;-80
2024/01/24 01:31:47;;;;;;;;;0.00;0.00;;;;;-146.37;100.00;59337.28;4866022;29;45381;-80
2024/01/24 01:34:12;;;;;;;;;0.00;0.00;;;;;-146.37;100.00;59337.28;4866173;29;45370;-80
2024/01/24 01:36:38;;;;;;;;;0.00;0.00;;;;;-146.37;100.00;59337.28;4846456;29;45328;-80
2024/01/24 01:39:06;;;;;;;;;0.00;0.00;;;;;-146.37;100.00;59337.28;4847530;29;45319;-80
2024/01/24 01:41:31;;;;;;;;;0.00;0.00;;;;;-146.37;100.00;59337.28;4864853;29;45516;-80
2024/01/24 01:43:57;;;;;;;;;0.00;0.00;;;;;-146.37;100.00;59337.28;4865314;29;44828;-81
2024/01/24 01:46:22;;;;;;;;;0.00;0.00;;;;;-146.37;100.00;59337.28;4865199;29;45599;-80
2024/01/24 01:48:49;;;;;;;;;0.00;0.00;;;;;-146.37;100.00;59337.28;4848779;29;46268;-80
2024/01/24 01:51:21;;;;;;;;;0.00;0.00;;;;;-146.37;100.00;59337.28;4847900;29;45396;-80
2024/01/24 01:53:48;;;;;;;;;0.00;0.00;;;;;-146.37;100.00;59337.28;4850517;29;45378;-80
2024/01/24 01:56:17;;;;;;;;;0.00;0.00;;;;;-146.37;100.00;59337.28;4834829;29;45502;-80
2024/01/24 01:58:44;;;;;;;;;0.00;0.00;;;;;-146.37;100.00;59337.28;4866611;29;45516;-80
2024/01/24 02:01:11;;;;;;;;;0.00;0.00;;;;;-146.37;100.00;59337.28;4867077;29;45417;-83
2024/01/24 02:03:37;;;;;;;;;0.00;0.00;;;;;-146.37;100.00;59337.28;4849067;29;45390;-82
2024/01/24 02:06:03;;;;;;;;;0.00;0.00;;;;;-146.37;100.00;59337.28;4849112;29;45521;-83
2024/01/24 02:08:31;;;;;;;;;0.00;0.00;;;;;-146.37;100.00;59337.28;4847303;29;47518;-83
2024/01/24 02:10:57;;;;;;;;;0.00;0.00;;;;;-146.37;100.00;59337.28;4846955;29;45459;-82
2024/01/24 02:13:58;;;;;;;;;0.00;0.00;;;;;-146.37;100.00;59337.28;4849304;29;45670;-83
2024/01/24 02:17:36;;;;;;;;;;;;;;;;;;;;;
2024/01/24 02:20:03;;;;;;;;;0.00;0.00;;;;;-146.37;100.00;59337.28;4862670;29;74494;-82
2024/01/24 02:22:29;;;;;;;;;0.00;0.00;;;;;-146.37;100.00;59337.28;4849062;29;45441;-82
2024/01/24 02:24:54;;;;;;;;;0.00;0.00;;;;;-146.37;100.00;59337.28;4847845;29;45366;-82
2024/01/24 02:27:20;;;;;;;;;0.00;0.00;;;;;-146.37;100.00;59337.28;4865502;29;45457;-82
2024/01/24 02:29:45;;;;;;;;;0.00;0.00;;;;;-146.37;100.00;59337.28;4866765;29;46122;-82
2024/01/24 02:32:11;;;;;;;;;0.00;0.00;;;;;-146.37;100.00;59337.28;4849751;29;45659;-82
2024/01/24 02:34:36;;;;;;;;;0.00;0.00;;;;;-146.37;100.00;59337.28;4863783;29;45770;-83
2024/01/24 02:37:03;;;;;;;;;0.00;0.00;;;;;-146.37;100.00;59337.28;4865469;29;45715;-81
2024/01/24 02:39:28;;;;;;;;;0.00;0.00;;;;;-146.37;100.00;59337.28;4847817;29;48338;-82
2024/01/24 02:41:54;;;;;;;;;0.00;0.00;;;;;-146.37;100.00;59337.28;4865536;29;45939;-83
2024/01/24 02:44:19;;;;;;;;;0.00;0.00;;;;;-146.37;100.00;59337.28;4865633;29;45993;-82
2024/01/24 02:46:44;;;;;;;;;0.00;0.00;;;;;-146.37;100.00;59337.28;4865793;29;45474;-83
2024/01/24 02:49:10;;;;;;;;;0.00;0.00;;;;;-146.37;100.00;59337.28;4865060;29;45840;-82
2024/01/24 02:51:36;;;;;;;;;0.00;0.00;;;;;-146.37;100.00;59337.28;4849550;29;44958;-83
2024/01/24 02:54:01;;;;;;;;;0.00;0.00;;;;;-146.37;100.00;59337.28;4849710;29;45497;-82
2024/01/24 02:56:27;;;;;;;;;0.00;0.00;;;;;-146.37;100.00;59337.28;4865850;29;45396;-82
2024/01/24 02:58:52;;;;;;;;;0.00;0.00;;;;;-146.37;100.00;59337.28;4864508;29;45532;-83
2024/01/24 03:01:24;;;;;;;;;0.00;0.00;;;;;-146.37;100.00;59337.28;4847103;29;45362;-82
2024/01/24 03:03:49;;;;;;;;;0.00;0.00;;;;;-146.37;100.00;59337.28;4864727;29;45478;-83
2024/01/24 03:06:15;;;;;;;;;0.00;0.00;;;;;-146.37;100.00;59337.28;4844185;29;44905;-83
2024/01/24 03:08:51;;;;;;;;;0.00;0.00;;;;;-146.37;100.00;59337.28;4828202;29;47171;-82
2024/01/24 03:11:17;;;;;;;;;0.00;0.00;;;;;-146.37;100.00;59337.28;4845729;29;45425;-83
2024/01/24 03:13:42;;;;;;;;;0.00;0.00;;;;;-146.37;100.00;59337.28;4827137;29;45523;-83
2024/01/24 03:16:08;;;;;;;;;0.00;0.00;;;;;-146.37;100.00;59337.28;4829698;29;45322;-83
2024/01/24 03:18:38;;;;;;;;;0.00;0.00;;;;;-146.37;100.00;59337.28;4843935;29;45794;-84
2024/01/24 03:21:09;;;;;;;;;0.00;0.00;;;;;-146.37;100.00;59337.28;4845168;29;45678;-83
2024/01/24 03:23:38;;;;;;;;;0.00;0.00;;;;;-146.37;100.00;59337.28;4828885;29;45374;-83
2024/01/24 03:26:07;;;;;;;;;0.00;0.00;;;;;-146.37;100.00;59337.28;4829009;29;45515;-83
2024/01/24 03:28:33;;;;;;;;;0.00;0.00;;;;;-146.37;100.00;59337.28;4846091;29;46246;-83
2024/01/24 03:31:02;;;;;;;;;0.00;0.00;;;;;-146.37;100.00;59337.28;4845271;29;45439;-83
2024/01/24 03:33:27;;;;;;;;;0.00;0.00;;;;;-146.37;100.00;59337.28;4831480;29;45404;-83
2024/01/24 03:35:53;;;;;;;;;0.00;0.00;;;;;-146.37;100.00;59337.28;5228389;23;45464;-80
2024/01/24 03:38:19;;;;;;;;;0.00;0.00;;;;;-146.37;100.00;59337.28;4885582;29;45693;-81
2024/01/24 03:40:46;;;;;;;;;0.00;0.00;;;;;-146.37;100.00;59337.28;4865138;29;45394;-81
2024/01/24 03:43:12;;;;;;;;;0.00;0.00;;;;;-146.37;100.00;59337.28;4881254;29;45323;-80
2024/01/24 03:45:38;;;;;;;;;0.00;0.00;;;;;-146.37;100.00;59337.28;4866373;29;45457;-80
2024/01/24 03:48:05;;;;;;;;;0.00;0.00;;;;;-146.37;100.00;59337.28;4883758;29;48222;-80
2024/01/24 03:50:30;;;;;;;;;0.00;0.00;;;;;-146.37;100.00;59337.28;4867956;29;45738;-81
2024/01/24 03:52:56;;;;;;;;;0.00;0.00;;;;;-146.37;100.00;59337.28;4883441;29;45449;-81
2024/01/24 03:55:21;;;;;;;;;0.00;0.00;;;;;-146.37;100.00;59337.28;4884266;29;45838;-81
2024/01/24 03:57:46;;;;;;;;;0.00;0.00;;;;;-146.37;100.00;59337.28;4867996;29;46759;-81
2024/01/24 04:00:12;;;;;;;;;0.00;0.00;;;;;-146.37;100.00;59337.28;4882441;29;45905;-81
2024/01/24 04:02:39;;;;;;;;;0.00;0.00;;;;;-146.37;100.00;59337.28;4867096;29;45382;-81
2024/01/24 04:05:05;;;;;;;;;0.00;0.00;;;;;-146.37;100.00;59337.28;4882933;29;45362;-81
2024/01/24 04:07:31;;;;;;;;;0.00;0.00;;;;;-146.37;100.00;59337.28;4883002;29;46284;-81
2024/01/24 04:09:57;;;;;;;;;0.00;0.00;;;;;-146.37;100.00;59337.28;4879237;29;45566;-82
2024/01/24 04:12:23;;;;;;;;;0.00;0.00;;;;;-146.37;100.00;59337.28;4877968;29;45491;-81
2024/01/24 04:14:48;;;;;;;;;0.00;0.00;;;;;-146.37;100.00;59337.28;4880161;29;45443;-81
2024/01/24 04:17:14;;;;;;;;;0.00;0.00;;;;;-146.37;100.00;59337.28;4863355;29;47147;-81
2024/01/24 04:19:41;;;;;;;;;0.00;0.00;;;;;-146.37;100.00;59337.28;4880555;29;45413;-80
2024/01/24 04:22:07;;;;;;;;;0.00;0.00;;;;;-146.37;100.00;59337.28;4883072;29;45528;-80
2024/01/24 04:24:33;;;;;;;;;0.00;0.00;;;;;-146.37;100.00;59337.28;4880401;29;45484;-81
2024/01/24 04:26:58;;;;;;;;;0.00;0.00;;;;;-146.37;100.00;59337.28;4882165;29;45768;-80
2024/01/24 04:29:23;;;;;;;;;0.00;0.00;;;;;-146.37;100.00;59337.28;4881621;29;45362;-80
2024/01/24 04:31:49;;;;;;;;;0.00;0.00;;;;;-146.37;100.00;59337.28;4882467;29;45401;-82
2024/01/24 04:34:17;;;;;;;;;0.00;0.00;;;;;-146.37;100.00;59337.28;4883741;29;45322;-82
2024/01/24 04:36:43;;;;;;;;;1.00;0.00;;;;;-146.37;100.00;59337.28;4873432;29;48213;-81
2024/01/24 04:39:10;;;;;;;;;0.00;0.00;;;;;-146.37;100.00;59337.28;4844732;29;45537;-81
2024/01/24 04:41:36;;;;;;;;;0.00;0.00;;;;;-146.37;100.00;59337.28;4845276;29;45522;-80
2024/01/24 04:44:01;;;;;;;;;0.00;0.00;;;;;-146.37;100.00;59337.28;4843364;29;45476;-81
2024/01/24 04:46:27;;;;;;;;;0.00;0.00;;;;;-146.37;100.00;59337.28;4844810;29;44907;-81
2024/01/24 04:48:53;;;;;;;;;0.00;0.00;;;;;-146.37;100.00;59337.28;4845304;29;45756;-80
2024/01/24 04:51:19;;;;;;;;;0.00;0.00;;;;;-146.37;100.00;59337.28;4844663;29;45795;-80
2024/01/24 04:53:44;;;;;;;;;0.00;0.00;;;;;-146.37;100.00;59337.28;4842487;29;45740;-80
2024/01/24 04:56:09;;;;;;;;;0.00;0.00;;;;;-146.37;100.00;59337.28;4844626;29;45789;-80
2024/01/24 04:58:35;;;;;;;;;0.00;0.00;;;;;-146.37;100.00;59337.28;4843939;29;44835;-81
2024/01/24 05:01:00;;;;;;;;;0.00;0.00;;;;;-146.37;100.00;59337.28;4842361;29;45335;-80
2024/01/24 05:03:26;;;;;;;;;0.00;0.00;;;;;-146.37;100.00;59337.28;4845035;29;45392;-80
2024/01/24 05:05:52;;;;;;;;;0.00;0.00;;;;;-146.37;100.00;59337.28;4843964;29;46743;-80
2024/01/24 05:08:18;;;;;;;;;0.00;0.00;;;;;-146.37;100.00;59337.28;4843289;29;45756;-81
2024/01/24 05:10:43;;;;;;;;;0.00;0.00;;;;;-146.37;100.00;59337.28;4843385;29;45409;-81
2024/01/24 05:13:08;;;;;;;;;0.00;0.00;;;;;-146.37;100.00;59337.28;4845505;29;45406;-80
2024/01/24 05:15:34;;;;;;;;;0.00;0.00;;;;;-146.37;100.00;59337.28;4827086;29;48189;-81
2024/01/24 05:18:00;;;;;;;;;0.00;0.00;;;;;-146.37;100.00;59337.28;4842496;29;49169;-81
2024/01/24 05:20:27;;;;;;;;;0.00;0.00;;;;;-146.37;100.00;59337.28;4844856;29;45600;-81
2024/01/24 05:22:53;;;;;;;;;0.75;0.00;;;;;-146.37;100.00;59337.28;4843239;29;45436;-81
2024/01/24 05:25:18;;;;;;;;;0.00;0.00;;;;;-146.37;100.00;59337.28;4840648;29;47045;-80
2024/01/24 05:27:44;;;;;;;;;0.00;0.00;;;;;-146.37;100.00;59337.28;4843921;29;45408;-81
2024/01/24 05:30:10;;;;;;;;;0.00;0.00;;;;;-146.37;100.00;59337.28;4842837;29;45409;-80
2024/01/24 05:32:41;;;;;;;;;0.00;0.00;;;;;-146.37;100.00;59337.28;4842479;29;45476;-81
2024/01/24 05:35:08;;;;;;;;;0.00;0.00;;;;;-146.37;100.00;59337.28;4842013;29;48143;-81
2024/01/24 05:37:33;;;;;;;;;0.00;0.00;;;;;-146.37;100.00;59337.28;4841336;29;45383;-80
2024/01/24 05:39:59;;;;;;;;;0.00;0.00;;;;;-146.37;100.00;59337.28;4844387;29;45729;-81
2024/01/24 05:42:24;;;;;;;;;0.00;0.00;;;;;-146.37;100.00;59337.28;4844425;29;45457;-81
2024/01/24 05:44:49;;;;;;;;;0.00;0.00;;;;;-146.37;100.00;59337.28;4844544;29;46018;-82
2024/01/24 05:47:15;;;;;;;;;0.00;0.00;;;;;-146.37;100.00;59337.28;4845093;29;45373;-82
2024/01/24 05:49:41;;;;;;;;;0.00;0.00;;;;;-146.37;100.00;59337.28;4844941;29;45384;-82
2024/01/24 05:52:06;;;;;;;;;0.00;0.00;;;;;-146.37;100.00;59337.28;4845815;29;45351;-82
2024/01/24 05:54:32;;;;;;;;;0.00;0.00;;;;;-146.37;100.00;59337.28;4847846;29;45443;-83
2024/01/24 05:57:13;;;;;;;;;0.00;0.00;;;;;-146.37;100.00;59337.28;4847832;29;45407;-82
2024/01/24 05:59:38;;;;;;;;;0.00;0.00;;;;;-146.37;100.00;59337.28;4848469;29;45530;-82
2024/01/24 06:02:13;;;;;;;;;0.00;0.00;;;;;-146.37;100.00;59337.28;4847767;29;45423;-82
2024/01/24 06:04:39;;;;;;;;;0.00;0.00;;;;;-146.37;100.00;59337.28;4844034;29;48340;-81
2024/01/24 06:07:06;;;;;;;;;0.00;0.00;;;;;-146.37;100.00;59337.28;4845127;29;45488;-82
2024/01/24 06:09:31;;;;;;;;;0.00;0.00;;;;;-146.37;100.00;59337.28;4845509;29;45724;-81
2024/01/24 06:11:56;;;;;;;;;0.00;0.00;;;;;-146.37;100.00;59337.28;4847285;29;45402;-82
2024/01/24 06:14:22;;;;;;;;;0.00;0.00;;;;;-146.37;100.00;59337.28;4846668;29;51056;-82
2024/01/24 06:16:47;;;;;;;;;0.00;0.00;;;;;-146.37;100.00;59337.28;4845403;29;45471;-82
2024/01/24 06:19:12;;;;;;;;;0.00;0.00;;;;;-146.37;100.00;59337.28;4846913;29;45454;-81
2024/01/24 06:21:41;;;;;;;;;0.00;0.00;;;;;-146.37;100.00;59337.28;4847944;29;45458;-82
2024/01/24 06:24:10;;;;;;;;;0.00;0.00;;;;;-146.37;100.00;59337.28;4858920;29;47150;-82
2024/01/24 06:26:37;;;;;;;;;0.50;0.50;;;;;-146.37;100.00;59337.28;4856968;29;44918;-81
2024/01/24 06:29:03;;;;;;;;;0.00;0.00;;;;;-146.37;100.00;59337.28;4857680;29;44876;-82
2024/01/24 06:31:28;;;;;;;;;0.00;0.00;;;;;-146.37;100.00;59337.28;4850867;29;45338;-80
2024/01/24 06:33:54;;;;;;;;;2.00;0.00;;;;;-146.37;100.00;59337.28;4846031;29;47149;-82
2024/01/24 06:36:28;;;;;;;;;0.00;0.00;;;;;-146.37;100.00;59337.28;4844923;29;45677;-80
2024/01/24 06:38:53;;;;;;;;;0.50;0.00;;;;;-146.37;100.00;59337.28;4847923;29;45527;-81
2024/01/24 06:41:18;;;;;;;;;0.75;0.00;;;;;-146.37;100.00;59337.28;4846407;29;45984;-82
2024/01/24 06:43:44;;;;;;;;;0.00;0.00;;;;;-146.37;100.00;59337.28;4845569;29;50278;-81
2024/01/24 06:46:13;;;;;;;;;0.00;0.00;;;;;-146.37;100.00;59337.28;4852079;29;45410;-82
2024/01/24 06:48:41;;;;;;;;;0.00;0.00;;;;;-146.37;100.00;59337.28;4852123;29;45506;-82
2024/01/24 06:51:12;;;;;;;;;1.50;0.00;;;;;-146.37;100.00;59337.28;4850511;29;45410;-81
2024/01/24 06:53:37;;;;;;;;;0.00;0.00;;;;;-146.37;100.00;59337.28;4849895;29;46528;-81
2024/01/24 06:56:03;;;;;;;;;0.00;0.00;;;;;-146.37;100.00;59337.28;4851090;29;45950;-83
2024/01/24 06:58:29;;;;;;;;;0.00;0.00;;;;;-146.37;100.00;59337.28;4849571;29;45182;-86
2024/01/24 07:00:56;;;;;;;;;0.00;0.00;;;;;-146.37;100.00;59337.28;4854930;29;45461;-87
2024/01/24 07:03:22;;;;;;;;;0.00;0.00;;;;;-146.37;100.00;59337.28;4856088;29;45447;-85
2024/01/24 07:05:51;;;;;;;;;0.75;0.00;;;;;-146.37;100.00;59337.28;4862400;29;44774;-87
2024/01/24 07:08:16;;;;;;;;;1.00;1.00;;;;;-146.37;100.00;59337.28;4852818;29;45432;-82
2024/01/24 07:10:42;;;;;;;;;0.00;0.00;;;;;-146.37;100.00;59337.28;4849728;29;46570;-82
2024/01/24 07:13:08;;;;;;;;;0.75;0.75;;;;;-146.37;100.00;59337.28;4865493;29;47939;-83
2024/01/24 07:15:34;;;;;;;;;0.00;0.00;;;;;-146.37;100.00;59337.28;4869858;29;45534;-83
2024/01/24 07:17:59;;;;;;;;;1.00;1.00;;;;;-146.37;100.00;59337.28;4868579;29;44911;-83
2024/01/24 07:20:25;;;;;;;;;0.00;0.00;;;;;-146.37;100.00;59337.28;4866001;29;45635;-82
2024/01/24 07:22:51;;;;;;;;;0.00;0.00;;;;;-146.37;100.00;59337.28;4869879;29;47030;-82
2024/01/24 07:25:20;;;;;;;;;0.25;0.25;;;;;-146.37;100.00;59337.28;4866884;29;45441;-82
2024/01/24 07:28:42;;;;;;;;;0.00;0.00;;;;;-146.37;100.00;59337.28;4869535;29;45354;-82
2024/01/24 07:31:08;;;;;;;;;1.00;0.00;;;;;-146.37;100.00;59337.28;4870667;29;45482;-83
2024/01/24 07:33:33;;;;;;;;;0.00;0.00;;;;;-146.37;100.00;59337.28;4865706;29;47017;-83
2024/01/24 07:36:05;;;;;;;;;0.00;0.00;;;;;-146.37;100.00;59337.28;4862291;29;45521;-83
2024/01/24 07:38:36;;;;;;;;;0.00;0.00;;;;;-146.37;100.00;59337.28;4863715;29;45733;-83
2024/01/24 07:41:04;;;;;;;;;0.00;0.00;;;;;-146.37;100.00;59337.28;4870351;29;45407;-83
2024/01/24 07:43:30;;;;;;;;;0.00;0.00;;;;;-146.37;100.00;59337.28;4871530;29;47297;-83
2024/01/24 07:45:56;;;;;;;;;0.75;0.75;;;;;-146.37;100.00;59337.28;4868732;29;45883;-83
2024/01/24 07:48:22;;;;;;;;;1.00;1.00;;;;;-146.37;100.00;59337.28;4869707;29;45349;-83
2024/01/24 07:50:49;;;;;;;;;0.00;0.00;;;;;-146.37;100.00;59337.28;4866016;29;45550;-84
2024/01/24 07:53:15;;;;;;;;;1.00;1.00;;;;;-146.37;100.00;59337.28;4866405;29;45549;-83
2024/01/24 07:55:41;;;;;;;;;0.00;0.00;;;;;-146.37;100.00;59337.28;4869418;29;45479;-83
2024/01/24 07:58:07;;;;;;;;;1.50;0.75;;;;;-146.37;100.00;59337.28;4864973;29;45360;-82
2024/01/24 08:00:32;;;;;;;;;2.25;1.00;;;;;-146.37;100.00;59337.28;4865394;28;45810;-83
2024/01/24 08:02:58;;;;;;;;;0.25;0.00;;;;;-146.37;100.00;59337.28;4863542;29;47181;-83
2024/01/24 08:05:24;;;;;;;;;1.00;1.00;;;;;-146.37;100.00;59337.28;4864117;29;45440;-83
2024/01/24 08:07:52;;;;;;;;;1.00;1.00;;;;;-146.37;100.00;59337.28;4865300;29;45497;-83
2024/01/24 08:10:18;;;;;;;;;0.00;0.00;;;;;-146.37;100.00;59337.28;4875942;29;45425;-81
2024/01/24 08:12:45;;;;;;;;;3.00;1.00;;;;;-146.37;100.00;59337.28;4853192;29;45460;-84
2024/01/24 08:15:10;;;;;;;;;1.00;1.00;;;;;-146.37;100.00;59337.28;4859560;28;44959;-80
2024/01/24 08:17:39;;;;;;;;;1.00;1.00;;;;;-146.37;100.00;59337.28;4847641;29;45475;-80
2024/01/24 08:20:08;;;;;;;;;1.00;1.00;;;;;-146.37;100.00;59337.28;4844618;29;45390;-81
2024/01/24 08:22:34;;;;;;;;;2.75;1.75;;;;;-146.37;100.00;59337.28;4860503;29;47186;-80
2024/01/24 08:25:00;;;;;;;;;2.00;2.00;;;;;-146.37;100.00;59337.28;4839936;29;45416;-81
2024/01/24 08:27:26;;;;;;;;;3.00;1.25;;;;;-146.37;100.00;59337.28;4844732;29;45555;-83
2024/01/24 08:29:52;;;;;;;;;2.25;1.00;;;;;-146.37;100.00;59337.28;4836074;29;45413;-79
2024/01/24 08:32:18;;;;;;;;;4.00;3.00;;;;;-146.37;100.00;59337.28;4861933;29;46710;-80
2024/01/24 08:34:44;;;;;;;;;3.25;3.25;;;;;-146.37;100.00;59337.28;4842327;29;46051;-79
2024/01/24 08:37:09;;;;;;;;;1.00;1.00;;;;;-146.37;100.00;59337.28;4842379;29;45467;-80
2024/01/24 08:39:35;;;;;;;;;3.00;3.00;;;;;-146.37;100.00;59337.28;4847895;29;45643;-81
2024/01/24 08:42:02;;;;;;;;;2.00;2.00;;;;;-146.37;100.00;59337.28;4866507;29;46696;-80
2024/01/24 08:44:27;;;;;;;;;4.75;3.50;;;;;-146.37;100.00;59337.28;4872823;29;44868;-81
2024/01/24 08:46:56;;;;;;;;;4.75;2.00;;;;;-146.37;100.00;59337.28;4872135;29;45272;-78
2024/01/24 08:49:21;;;;;;;;;7.00;2.50;;;;;-146.37;100.00;59337.28;4867711;29;44940;-79
2024/01/24 08:51:47;;;;;;;;;5.50;4.75;;;;;-146.37;100.00;59337.28;4868380;29;45368;-79
2024/01/24 08:54:13;;;;;;;;;2.50;1.25;;;;;-146.37;100.00;59337.28;4851298;29;45025;-80
2024/01/24 08:56:39;;;;;;;;;5.00;4.00;;;;;-146.37;100.00;59337.28;4852788;29;44851;-78
2024/01/24 08:59:04;;;;;;;;;3.75;3.50;;;;;-146.37;100.00;59337.28;4834416;29;45793;-82
2024/01/24 09:01:33;;;;;;;;;11.00;2.75;;;;;-146.37;100.00;59337.28;4848436;29;46384;-80
2024/01/24 09:04:42;;;;;;;;;3.75;2.50;;;;;-146.37;100.00;59337.28;4866511;29;45395;-80
2024/01/24 09:07:08;;;;;;;;;4.00;2.00;;;;;-146.37;100.00;59337.28;4847220;29;45622;-78
2024/01/24 09:09:34;;;;;;;;;7.00;4.00;;;;;-146.37;100.00;59337.28;4850692;29;45384;-79
2024/01/24 09:12:00;;;;;;;;;2.75;2.25;;;;;-146.37;100.00;59337.28;4863673;29;46434;-80
2024/01/24 09:14:26;;;;;;;;;4.50;3.75;;;;;-146.37;100.00;59337.28;4856866;29;44771;-80
2024/01/24 09:16:52;;;;;;;;;2.25;2.25;;;;;-146.37;100.00;59337.28;4843797;29;45015;-79
2024/01/24 09:19:18;;;;;;;;;7.00;3.75;;;;;-146.37;100.00;59337.28;4855610;29;45463;-79
2024/01/24 09:27:21;;;;;;;;;3.75;3.75;;;;;-146.37;100.00;59337.28;4244985;23;45868;-81
2024/01/24 09:29:47;;;;;;;;;5.00;4.00;;;;;-146.37;100.00;59337.28;4852058;29;44909;-81
2024/01/24 09:32:13;;;;;;;;;4.00;2.75;;;;;-146.37;100.00;59337.28;4849049;29;47676;-80
2024/01/24 09:34:39;;;;;;;;;3.75;3.75;;;;;-146.37;100.00;59337.28;4850784;29;45335;-81
2024/01/24 09:37:04;;;;;;;;;3.00;2.00;;;;;-146.37;100.00;59337.28;4848981;29;45406;-80
2024/01/24 09:39:32;;;;;;;;;3.75;3.75;;;;;-146.37;100.00;59337.28;4866081;29;45828;-79
2024/01/24 09:42:01;;;;;;;;;7.75;3.50;;;;;-146.37;100.00;59337.28;4866053;29;45809;-80
2024/01/24 09:44:34;;;;;;;;;3.50;3.00;;;;;-146.37;100.00;59337.28;4864725;29;45387;-80
2024/01/24 09:47:03;;;;;;;;;6.50;3.25;;;;;-146.37;100.00;59337.28;4849380;29;45925;-81
2024/01/24 09:49:31;;;;;;;;;8.75;4.00;;;;;-146.37;100.00;59337.28;4861732;29;44982;-82
2024/01/24 09:52:02;;;;;;;;;4.75;3.25;;;;;-146.37;100.00;59337.28;4849825;29;47456;-82
2024/01/24 09:54:32;;;;;;;;;5.00;5.00;;;;;-146.37;100.00;59337.28;4865117;29;45395;-82
2024/01/24 09:57:02;;;;;;;;;2.75;2.75;;;;;-146.37;100.00;59337.28;4853979;29;45512;-81
2024/01/24 09:59:28;;;;;;;;;6.50;4.75;;;;;-146.37;100.00;59337.28;4859704;29;45562;-83
2024/01/24 10:01:54;;;;;;;;;4.00;4.00;;;;;-146.37;100.00;59337.28;4861504;29;47619;-82
2024/01/24 10:04:20;;;;;;;;;5.25;2.50;;;;;-146.37;100.00;59337.28;4867627;29;45004;-83
2024/01/24 10:06:46;;;;;;;;;3.00;2.50;;;;;-146.37;100.00;59337.28;4870369;29;45627;-82
2024/01/24 10:09:21;;;;;;;;;10.00;5.00;;;;;-146.37;100.00;59337.28;4885493;28;45399;-84
2024/01/24 10:11:47;;;;;;;;;2.75;2.50;;;;;-146.37;100.00;59337.28;4874999;28;47568;-84
2024/01/24 10:14:12;;;;;;;;;4.75;3.75;;;;;-146.37;100.00;59337.28;4879094;29;45763;-84
2024/01/24 10:16:41;;;;;;;;;4.50;3.75;;;;;-146.37;100.00;59337.28;4872110;29;45435;-82
2024/01/24 10:19:44;;;;;;;;;10.50;6.00;;;;;-146.37;100.00;59337.28;4869540;29;45441;-83
2024/01/24 10:22:10;;;;;;;;;3.00;2.00;;;;;-146.37;100.00;59337.28;4852038;29;47298;-83
2024/01/24 10:24:41;;;;;;;;;3.50;2.50;;;;;-146.37;100.00;59337.28;4873598;29;45399;-84
2024/01/24 10:27:08;;;;;;;;;4.00;3.00;;;;;-146.37;100.00;59337.28;4878043;29;44928;-85
2024/01/24 10:29:34;;;;;;;;;4.00;3.75;;;;;-146.37;100.00;59337.28;4867920;29;45227;-84
2024/01/24 10:32:01;;;;;;;;;6.00;3.75;;;;;-146.37;100.00;59337.28;5092492;23;46092;-82
2024/01/24 10:34:30;;;;;;;;;7.00;5.00;;;;;-146.37;100.00;59337.28;4889374;28;45476;-80
2024/01/24 10:36:56;;;;;;;;;6.50;3.25;;;;;-146.37;100.00;59337.28;4882764;29;44849;-81
2024/01/24 10:39:27;;;;;;;;;2.75;2.00;;;;;-146.37;100.00;59337.28;4870909;29;45500;-81
2024/01/24 10:42:01;;;;;;;;;4.50;4.25;;;;;-146.37;100.00;59337.28;4867932;29;46790;-81
2024/01/24 10:44:34;;;;;;;;;5.25;5.25;;;;;-146.37;100.00;59337.28;4870488;29;45568;-80
2024/01/24 10:47:03;;;;;;;;;10.25;3.75;;;;;-146.37;100.00;59337.28;4872638;29;45472;-81
2024/01/24 10:49:31;;;;;;;;;7.25;4.00;;;;;-146.37;100.00;59337.28;4870816;29;45874;-78
2024/01/24 10:51:57;;;;;;;;;10.00;6.50;;;;;-146.37;100.00;59337.28;4871774;29;45268;-81
2024/01/24 10:54:23;;;;;;;;;5.00;4.50;;;;;-146.37;100.00;59337.28;4870707;29;45754;-81
2024/01/24 10:56:59;;;;;;;;;4.75;3.75;;;;;-146.37;100.00;59337.28;4869912;29;45503;-80
2024/01/24 10:59:27;;;;;;;;;8.00;5.50;;;;;-146.37;100.00;59337.28;4870934;29;45804;-81
2024/01/24 11:01:55;;;;;;;;;7.00;5.00;;;;;-146.37;100.00;59337.28;4872746;29;45487;-81
2024/01/24 11:04:23;;;;;;;;;4.00;4.00;;;;;-146.37;100.00;59337.28;4889446;29;45306;-80
2024/01/24 11:06:57;;;;;;;;;8.25;5.75;;;;;-146.37;100.00;59337.28;4847669;29;45454;-82
2024/01/24 11:10:22;;;;;;;;;4.25;3.25;;;;;-146.37;100.00;59337.28;4871318;29;45609;-81
2024/01/24 11:12:48;;;;;;;;;4.00;4.00;;;;;-146.37;100.00;59337.28;4803199;29;47303;-81
2024/01/24 11:15:28;;;;;;;;;6.75;4.00;;;;;-146.37;100.00;59337.28;4832419;29;45415;-81
2024/01/24 11:18:32;;;;;;;;;5.25;4.75;;;;;-146.37;100.00;59337.28;4809182;29;45879;-79